Time;durP1;ratioP1;P1;durP2;ratioP2;P2;SDS_P1;SDS_P2;PMS_P1;PMS_P2;Temp;Humidity;BMP_temperature;BMP_pressure;BME280_temperature;BME280_humidity;BME280_pressure;Samples;Min_cycle;Max_cycle;Signal;HPM_P1;HPM_P2
2023/11/20 00:02:07;;;;;;;0.70;0.70;;;;;;;2.11;71.38;99784.59;5066223;28;20025;-66
2023/11/20 00:04:32;;;;;;;1.10;1.10;;;;;;;2.05;71.78;99789.63;5066748;28;20078;-67
2023/11/20 00:06:57;;;;;;;0.60;0.60;;;;;;;2.09;71.92;99802.50;5066761;28;20025;-67
2023/11/20 00:09:23;;;;;;;0.50;0.50;;;;;;;2.13;71.86;99811.13;5066544;28;20363;-67
2023/11/20 00:11:48;;;;;;;0.82;0.82;;;;;;;2.11;71.67;99805.09;5065173;28;20025;-67
2023/11/20 00:14:14;;;;;;;1.20;1.10;;;;;;;2.10;71.74;99808.50;5066509;28;20068;-67
2023/11/20 00:16:39;;;;;;;2.90;1.25;;;;;;;2.10;71.92;99795.69;5066825;28;20017;-66
2023/11/20 00:19:06;;;;;;;0.77;0.77;;;;;;;2.10;72.02;99790.56;5066566;28;20027;-69
2023/11/20 00:21:32;;;;;;;1.23;1.13;;;;;;;2.28;71.39;99805.38;5066648;28;20021;-66
2023/11/20 00:23:58;;;;;;;0.93;0.93;;;;;;;2.17;71.57;99810.31;5066524;28;20040;-67
2023/11/20 00:26:23;;;;;;;0.73;0.73;;;;;;;2.14;71.78;99801.75;5066439;28;20017;-67
2023/11/20 00:28:49;;;;;;;2.58;1.63;;;;;;;2.15;71.88;99800.91;5066308;28;20092;-67
2023/11/20 00:31:15;;;;;;;0.50;0.50;;;;;;;2.15;71.62;99799.22;5065216;28;20029;-67
2023/11/20 00:33:41;;;;;;;0.98;0.95;;;;;;;2.17;71.75;99805.19;5066441;28;20021;-66
2023/11/20 00:36:06;;;;;;;0.75;0.75;;;;;;;2.16;71.99;99798.34;5066262;28;20048;-67
2023/11/20 00:38:32;;;;;;;0.85;0.82;;;;;;;2.20;71.78;99800.16;5066038;28;20053;-67
2023/11/20 00:40:57;;;;;;;0.80;0.80;;;;;;;2.19;71.91;99800.13;5065115;28;20107;-67
2023/11/20 00:43:23;;;;;;;0.70;0.70;;;;;;;2.18;71.65;99778.75;5080524;28;20117;-67
2023/11/20 00:45:48;;;;;;;1.23;1.13;;;;;;;2.28;71.34;99812.22;5066112;28;20481;-67
2023/11/20 00:48:13;;;;;;;3.25;1.15;;;;;;;2.21;71.63;99794.19;5065800;28;20037;-66
2023/11/20 00:50:39;;;;;;;0.75;0.75;;;;;;;2.19;71.62;99782.19;5065976;28;20027;-67
2023/11/20 00:53:04;;;;;;;0.90;0.80;;;;;;;2.20;71.65;99783.91;5065892;28;20079;-66
2023/11/20 00:55:30;;;;;;;1.55;1.45;;;;;;;2.21;71.96;99786.50;5065746;28;20031;-66
2023/11/20 00:57:55;;;;;;;0.70;0.70;;;;;;;2.27;71.71;99772.06;5065273;28;20024;-66
2023/11/20 01:00:21;;;;;;;0.63;0.63;;;;;;;2.21;71.67;99766.00;5065905;28;20117;-66
2023/11/20 01:02:47;;;;;;;0.60;0.60;;;;;;;2.22;71.84;99766.88;5065720;28;20056;-66
2023/11/20 01:05:12;;;;;;;0.80;0.80;;;;;;;2.12;71.89;99755.63;5065897;28;20021;-66
2023/11/20 01:07:38;;;;;;;0.93;0.93;;;;;;;2.23;71.68;99764.34;5065786;28;20120;-67
2023/11/20 01:10:04;;;;;;;1.65;1.20;;;;;;;2.10;72.27;99753.03;5065469;28;20068;-66
2023/11/20 01:12:30;;;;;;;0.88;0.88;;;;;;;2.16;72.12;99765.06;5065269;28;20484;-66
2023/11/20 01:14:56;;;;;;;0.70;0.70;;;;;;;2.25;72.07;99771.16;5065498;28;20028;-67
2023/11/20 01:17:21;;;;;;;0.80;0.80;;;;;;;2.08;72.55;99764.94;5065246;28;20064;-68
2023/11/20 01:19:47;;;;;;;0.75;0.75;;;;;;;2.14;72.71;99773.56;5065631;28;20043;-67
2023/11/20 01:22:12;;;;;;;2.15;1.10;;;;;;;2.14;72.82;99789.78;5065349;28;20021;-67
2023/11/20 01:24:38;;;;;;;0.50;0.50;;;;;;;2.12;72.64;99780.34;5079873;28;20079;-67
2023/11/20 01:27:04;;;;;;;0.68;0.68;;;;;;;2.17;72.83;99799.22;5065274;28;20025;-68
2023/11/20 01:29:29;;;;;;;1.02;1.02;;;;;;;2.18;72.71;99790.69;5065115;28;20027;-67
2023/11/20 01:31:55;;;;;;;1.70;1.08;;;;;;;2.13;72.81;99784.63;5065112;28;20423;-67
2023/11/20 01:34:20;;;;;;;0.80;0.80;;;;;;;2.22;72.88;99803.56;5065152;28;20047;-67
2023/11/20 01:36:46;;;;;;;0.55;0.55;;;;;;;2.12;72.80;99775.22;5064840;28;20029;-67
2023/11/20 01:39:13;;;;;;;2.00;1.20;;;;;;;2.28;72.63;99809.63;5064854;28;20049;-67
2023/11/20 01:41:38;;;;;;;0.50;0.50;;;;;;;2.27;72.80;99803.66;5064906;28;20016;-67
2023/11/20 01:44:04;;;;;;;1.30;1.25;;;;;;;2.29;72.76;99803.66;5065039;28;20021;-68
2023/11/20 01:46:30;;;;;;;0.70;0.70;;;;;;;2.32;72.86;99813.97;5065157;28;20032;-66
2023/11/20 01:48:58;;;;;;;2.22;1.45;;;;;;;2.29;72.55;99798.53;5064732;28;20021;-67
2023/11/20 01:51:26;;;;;;;0.75;0.75;;;;;;;2.28;72.76;99812.22;5064928;28;20036;-66
2023/11/20 01:53:52;;;;;;;0.93;0.75;;;;;;;2.27;72.75;99808.78;5064959;28;20020;-67
2023/11/20 01:56:18;;;;;;;3.25;1.42;;;;;;;2.28;72.55;99810.50;5064901;28;20078;-66
2023/11/20 01:58:44;;;;;;;0.85;0.85;;;;;;;2.36;71.99;99815.75;5064850;28;20044;-67
2023/11/20 02:01:09;;;;;;;0.50;0.50;;;;;;;2.25;72.34;99807.91;5064792;28;20039;-66
2023/11/20 02:03:35;;;;;;;1.25;1.15;;;;;;;2.29;72.11;99817.34;5064906;28;20103;-67
2023/11/20 02:06:00;;;;;;;1.70;1.55;;;;;;;2.27;72.44;99815.63;5064572;28;20049;-67
2023/11/20 02:08:28;;;;;;;1.17;1.17;;;;;;;2.30;72.53;99821.63;5063815;28;20028;-67
2023/11/20 02:10:55;;;;;;;1.80;1.13;;;;;;;2.35;71.94;99820.00;5064618;28;20025;-66
2023/11/20 02:13:20;;;;;;;3.03;1.27;;;;;;;2.25;72.33;99820.72;5079898;28;20028;-67
2023/11/20 02:15:46;;;;;;;0.88;0.82;;;;;;;2.27;72.29;99813.06;5064769;28;20020;-67
2023/11/20 02:18:34;;;;;;;2.38;0.98;;;;;;;2.30;72.04;99810.53;5065073;28;20041;-68
2023/11/20 02:21:01;;;;;;;3.60;1.75;;;;;;;2.24;72.17;99818.97;5061718;28;20060;-68
2023/11/20 02:23:26;;;;;;;0.80;0.80;;;;;;;2.26;72.48;99813.88;5064579;28;20048;-67
2023/11/20 02:26:11;;;;;;;1.60;1.08;;;;;;;2.27;72.16;99825.84;5064869;28;20032;-68
2023/11/20 02:28:41;;;;;;;1.50;1.38;;;;;;;2.23;72.52;99820.69;5080095;28;20017;-67
2023/11/20 02:31:07;;;;;;;0.60;0.60;;;;;;;2.27;72.63;99831.81;5064665;28;20028;-66
2023/11/20 02:33:36;;;;;;;1.63;1.52;;;;;;;2.30;72.65;99829.31;5064454;28;20029;-67
2023/11/20 02:36:03;;;;;;;0.90;0.90;;;;;;;2.31;72.63;99819.94;5067033;28;20511;-67
2023/11/20 02:38:28;;;;;;;3.03;2.13;;;;;;;2.27;72.60;99811.34;5068510;28;20049;-66
2023/11/20 02:40:55;;;;;;;0.98;0.95;;;;;;;2.31;72.37;99823.38;5067120;28;20017;-67
2023/11/20 02:43:20;;;;;;;1.10;0.90;;;;;;;2.29;72.54;99826.72;5067774;28;20310;-66
2023/11/20 02:45:46;;;;;;;1.33;1.23;;;;;;;2.25;72.54;99817.28;5083719;28;20028;-67
2023/11/20 02:48:11;;;;;;;1.10;1.10;;;;;;;2.31;72.50;99820.81;5068082;28;20077;-67
2023/11/20 02:50:36;;;;;;;1.83;1.48;;;;;;;2.34;72.56;99817.41;5068378;28;20028;-66
2023/11/20 02:53:02;;;;;;;0.73;0.73;;;;;;;2.32;72.55;99811.41;5068218;28;20047;-67
2023/11/20 02:55:27;;;;;;;1.02;1.02;;;;;;;2.20;72.42;99812.97;5068186;28;20021;-67
2023/11/20 02:57:53;;;;;;;2.40;1.52;;;;;;;2.30;72.72;99829.31;5067783;28;20020;-67
2023/11/20 03:00:18;;;;;;;1.38;1.27;;;;;;;2.33;72.59;99823.41;5068014;28;20017;-67
2023/11/20 03:02:44;;;;;;;0.70;0.70;;;;;;;2.31;72.61;99815.69;5067951;28;20020;-67
2023/11/20 03:05:10;;;;;;;2.85;1.67;;;;;;;2.32;72.52;99811.41;5068051;28;20164;-67
2023/11/20 03:07:35;;;;;;;0.82;0.82;;;;;;;2.37;72.18;99820.03;5067892;28;20029;-67
2023/11/20 03:10:03;;;;;;;0.50;0.50;;;;;;;2.28;72.94;99822.44;5067906;28;20023;-67
2023/11/20 03:12:29;;;;;;;0.80;0.80;;;;;;;2.26;72.74;99822.44;5067437;28;20021;-67
2023/11/20 03:14:54;;;;;;;3.70;1.40;;;;;;;2.26;72.79;99825.00;5067788;28;20063;-66
2023/11/20 03:17:20;;;;;;;1.80;1.52;;;;;;;2.33;72.84;99831.91;5067717;28;20372;-66
2023/11/20 03:19:46;;;;;;;3.63;1.48;;;;;;;2.30;72.80;99829.31;5067832;28;20021;-67
2023/11/20 03:22:11;;;;;;;0.85;0.85;;;;;;;2.16;72.81;99805.16;5067648;28;20032;-67
2023/11/20 03:24:37;;;;;;;1.05;1.05;;;;;;;2.28;72.84;99832.69;5067637;28;20029;-66
2023/11/20 03:27:03;;;;;;;2.45;1.77;;;;;;;2.27;72.96;99842.06;5067433;28;20025;-66
2023/11/20 03:29:29;;;;;;;0.90;0.90;;;;;;;2.28;73.04;99841.25;5067537;28;20096;-66
2023/11/20 03:31:54;;;;;;;1.58;1.25;;;;;;;2.33;72.98;99839.59;5065929;28;20063;-66
2023/11/20 03:34:19;;;;;;;1.48;1.13;;;;;;;2.36;73.04;99841.38;5067353;28;20119;-66
2023/11/20 03:36:45;;;;;;;2.95;1.50;;;;;;;2.34;73.01;99841.34;5067233;28;20025;-66
2023/11/20 03:39:10;;;;;;;0.50;0.50;;;;;;;2.38;72.83;99849.94;5067232;28;20061;-66
2023/11/20 03:41:35;;;;;;;0.90;0.90;;;;;;;2.38;72.90;99851.66;5067196;28;20021;-66
2023/11/20 03:44:01;;;;;;;1.88;1.50;;;;;;;2.35;73.06;99855.00;5067038;28;20025;-66
2023/11/20 03:46:26;;;;;;;1.50;1.40;;;;;;;2.39;72.94;99854.22;5066384;28;20025;-66
2023/11/20 03:48:52;;;;;;;3.85;1.08;;;;;;;2.32;73.06;99857.50;5066986;28;20029;-67
2023/11/20 03:51:17;;;;;;;2.00;1.80;;;;;;;2.35;73.23;99852.44;5065958;28;20031;-67
2023/11/20 03:53:44;;;;;;;1.02;1.02;;;;;;;2.35;73.14;99862.69;5067053;28;20064;-67
2023/11/20 03:56:13;;;;;;;2.47;2.20;;;;;;;2.34;73.17;99853.28;5082222;28;20025;-67
2023/11/20 03:58:39;;;;;;;0.85;0.85;;;;;;;2.31;73.15;99850.69;5066635;28;20473;-67
2023/11/20 04:01:04;;;;;;;2.28;1.92;;;;;;;2.33;73.06;99849.00;5065783;28;20104;-67
2023/11/20 04:03:29;;;;;;;1.63;0.93;;;;;;;2.33;73.27;99861.81;5067057;28;20083;-67
2023/11/20 04:05:55;;;;;;;1.83;1.73;;;;;;;2.21;73.41;99835.16;5065664;28;20071;-66
2023/11/20 04:08:21;;;;;;;1.25;1.20;;;;;;;2.33;73.25;99856.69;5066844;28;20029;-66
2023/11/20 04:10:46;;;;;;;1.05;0.90;;;;;;;2.26;73.40;99845.47;5082055;28;20021;-66
2023/11/20 04:13:12;;;;;;;1.20;1.02;;;;;;;2.31;73.42;99858.38;5066630;28;20024;-67
2023/11/20 04:15:37;;;;;;;1.30;1.17;;;;;;;2.29;73.42;99855.78;5066733;28;20053;-67
2023/11/20 04:18:02;;;;;;;1.23;1.13;;;;;;;2.29;73.38;99849.78;5066647;28;20024;-66
2023/11/20 04:20:28;;;;;;;4.13;1.95;;;;;;;2.28;73.57;99845.50;5066592;28;20055;-66
2023/11/20 04:22:54;;;;;;;1.33;1.23;;;;;;;2.26;73.52;99848.03;5066549;28;20017;-67
2023/11/20 04:25:20;;;;;;;1.85;1.75;;;;;;;2.27;73.46;99844.63;5065223;28;20028;-67
2023/11/20 04:27:51;;;;;;;0.95;0.95;;;;;;;2.25;73.58;99840.34;5066119;28;20032;-67
2023/11/20 04:30:18;;;;;;;1.80;1.35;;;;;;;2.27;73.40;99843.78;5066319;28;20021;-68
2023/11/20 04:32:43;;;;;;;0.50;0.50;;;;;;;2.25;73.67;99835.22;5065059;28;20304;-67
2023/11/20 04:35:08;;;;;;;1.75;1.08;;;;;;;2.26;73.72;99850.59;5066833;28;20025;-68
2023/11/20 04:37:34;;;;;;;1.98;0.88;;;;;;;2.21;73.92;99844.53;5066271;28;20021;-67
2023/11/20 04:39:59;;;;;;;3.00;2.63;;;;;;;2.19;74.01;99841.94;5066151;28;20025;-67
2023/11/20 04:42:25;;;;;;;1.73;1.55;;;;;;;2.22;74.04;99838.59;5065976;28;20025;-67
2023/11/20 04:44:50;;;;;;;0.88;0.88;;;;;;;2.29;73.93;99855.78;5066074;28;20041;-67
2023/11/20 04:47:15;;;;;;;1.05;1.05;;;;;;;2.24;73.72;99836.91;5065840;28;20027;-66
2023/11/20 04:49:41;;;;;;;1.50;1.02;;;;;;;2.29;73.97;99853.22;5066191;28;20036;-66
2023/11/20 04:52:06;;;;;;;1.08;0.98;;;;;;;2.23;74.04;99842.88;5064332;28;20031;-66
2023/11/20 04:54:31;;;;;;;1.27;1.17;;;;;;;2.30;74.09;99848.97;5066014;28;20017;-66
2023/11/20 04:56:58;;;;;;;1.80;1.38;;;;;;;2.28;74.09;99850.63;5065891;28;20409;-66
2023/11/20 04:59:24;;;;;;;1.23;1.13;;;;;;;2.35;73.75;99860.13;5065615;28;20028;-66
2023/11/20 05:01:50;;;;;;;2.13;1.38;;;;;;;2.29;73.78;99847.22;5065811;28;20029;-67
2023/11/20 05:04:15;;;;;;;1.20;0.82;;;;;;;2.32;73.98;99844.69;5065834;28;20029;-66
2023/11/20 05:06:40;;;;;;;0.50;0.50;;;;;;;2.29;74.31;99845.53;5064407;28;20052;-68
2023/11/20 05:09:07;;;;;;;0.75;0.75;;;;;;;2.33;74.15;99857.53;5065795;28;20036;-68
2023/11/20 05:11:32;;;;;;;0.60;0.60;;;;;;;2.22;74.21;99836.88;5080998;28;20025;-68
2023/11/20 05:13:59;;;;;;;1.25;1.25;;;;;;;2.35;74.28;99855.00;5064165;28;20029;-67
2023/11/20 05:16:24;;;;;;;1.65;1.52;;;;;;;2.34;74.28;99864.41;5064235;28;20028;-67
2023/11/20 05:18:50;;;;;;;5.55;2.28;;;;;;;2.41;74.10;99870.47;5064324;28;20024;-67
2023/11/20 05:21:15;;;;;;;1.58;1.45;;;;;;;2.34;74.21;99864.41;5064325;28;20013;-68
2023/11/20 05:23:41;;;;;;;0.80;0.80;;;;;;;2.36;74.04;99861.88;5065448;28;20060;-68
2023/11/20 05:26:06;;;;;;;0.77;0.77;;;;;;;2.32;74.16;99860.06;5065317;28;20027;-67
2023/11/20 05:28:31;;;;;;;1.73;1.38;;;;;;;2.29;74.40;99866.03;5065108;28;20028;-67
2023/11/20 05:30:57;;;;;;;1.83;1.15;;;;;;;2.39;74.35;99868.72;5064181;28;20055;-68
2023/11/20 05:33:23;;;;;;;0.75;0.75;;;;;;;2.37;74.40;99865.28;5065187;28;20476;-66
2023/11/20 05:35:48;;;;;;;2.35;2.03;;;;;;;2.44;74.36;99882.50;5065384;28;20460;-66
2023/11/20 05:38:14;;;;;;;1.50;1.38;;;;;;;2.46;74.36;99883.38;5064475;28;20052;-67
2023/11/20 05:40:39;;;;;;;2.38;1.65;;;;;;;2.44;74.35;99883.38;5065098;28;20013;-66
2023/11/20 05:43:05;;;;;;;4.55;1.65;;;;;;;2.47;74.14;99893.66;5065127;28;20025;-66
2023/11/20 05:45:30;;;;;;;1.38;0.98;;;;;;;2.46;74.42;99893.63;5065281;28;20021;-66
2023/11/20 05:47:56;;;;;;;1.40;1.27;;;;;;;2.43;74.30;99893.59;5064873;28;20017;-66
2023/11/20 05:50:21;;;;;;;0.80;0.80;;;;;;;2.49;74.34;99898.81;5064771;28;20049;-66
2023/11/20 05:52:47;;;;;;;1.17;1.15;;;;;;;2.48;74.43;99903.06;5064952;28;20112;-66
2023/11/20 05:55:12;;;;;;;2.22;2.05;;;;;;;2.51;74.29;99892.00;5064926;28;20025;-66
2023/11/20 05:57:38;;;;;;;2.28;2.00;;;;;;;2.43;74.00;99886.75;5064465;28;20032;-65
2023/11/20 06:00:06;;;;;;;1.30;1.20;;;;;;;2.53;74.24;99903.13;5065044;28;20028;-65
2023/11/20 06:02:32;;;;;;;1.00;1.00;;;;;;;2.50;74.44;99900.53;5064784;28;20029;-66
2023/11/20 06:04:57;;;;;;;3.15;1.20;;;;;;;2.43;74.42;99885.91;5064907;28;20048;-65
2023/11/20 06:07:22;;;;;;;1.35;1.00;;;;;;;2.59;74.10;99907.50;5064836;28;20025;-65
2023/11/20 06:09:48;;;;;;;4.75;2.33;;;;;;;2.52;74.31;99903.97;5065289;28;20033;-65
2023/11/20 06:12:13;;;;;;;17.23;1.80;;;;;;;2.52;74.09;99898.84;5068822;28;20098;-65
2023/11/20 06:14:41;;;;;;;1.58;0.98;;;;;;;2.54;74.35;99896.31;5067611;28;20029;-65
2023/11/20 06:17:06;;;;;;;0.50;0.50;;;;;;;2.54;74.41;99901.44;5069166;28;20031;-65
2023/11/20 06:19:32;;;;;;;1.10;1.10;;;;;;;2.52;74.27;99905.66;5068864;28;20045;-65
2023/11/20 06:21:58;;;;;;;2.33;1.58;;;;;;;2.43;74.38;99899.56;5067457;28;20028;-65
2023/11/20 06:24:23;;;;;;;0.93;0.93;;;;;;;2.47;74.57;99908.16;5068818;28;20029;-64
2023/11/20 06:26:49;;;;;;;6.72;1.67;;;;;;;2.45;74.78;99903.00;5068793;28;20148;-65
2023/11/20 06:29:14;;;;;;;0.50;0.50;;;;;;;2.43;74.78;99909.81;5068657;28;20029;-64
2023/11/20 06:31:40;;;;;;;2.95;2.25;;;;;;;2.43;74.69;99917.50;5068893;28;20073;-64
2023/11/20 06:34:05;;;;;;;0.82;0.82;;;;;;;2.44;74.76;99919.22;5068746;28;20059;-64
2023/11/20 06:36:31;;;;;;;1.27;0.68;;;;;;;2.44;74.75;99926.91;5068574;28;20512;-64
2023/11/20 06:38:59;;;;;;;1.55;1.45;;;;;;;2.46;74.71;99927.78;5068555;28;20045;-64
2023/11/20 06:41:26;;;;;;;0.55;0.55;;;;;;;2.51;74.92;99937.28;5068684;28;20021;-64
2023/11/20 06:43:52;;;;;;;1.98;1.25;;;;;;;2.50;74.73;99941.53;5067058;28;20017;-66
2023/11/20 06:46:19;;;;;;;0.73;0.73;;;;;;;2.45;74.87;99954.25;5068759;28;20029;-65
2023/11/20 06:48:44;;;;;;;1.73;1.23;;;;;;;2.50;74.73;99948.34;5068548;28;20020;-65
2023/11/20 06:51:12;;;;;;;1.10;1.02;;;;;;;2.45;74.81;99951.69;5068719;28;20061;-65
2023/11/20 06:53:38;;;;;;;0.85;0.82;;;;;;;2.48;74.83;99951.75;5083851;28;20035;-65
2023/11/20 06:56:03;;;;;;;2.90;1.23;;;;;;;2.37;75.14;99937.00;5068275;28;20029;-65
2023/11/20 06:58:29;;;;;;;1.15;1.02;;;;;;;2.43;75.07;99940.56;5068136;28;20017;-65
2023/11/20 07:00:54;;;;;;;1.60;1.50;;;;;;;2.50;74.82;99962.03;5068634;28;20040;-65
2023/11/20 07:03:20;;;;;;;3.30;1.45;;;;;;;2.44;74.85;99951.66;5068350;28;20025;-66
2023/11/20 07:05:48;;;;;;;2.05;1.23;;;;;;;2.43;75.00;99958.47;5068418;28;20048;-65
2023/11/20 07:08:16;;;;;;;1.27;1.27;;;;;;;2.43;75.09;99958.47;5068455;28;20028;-64
2023/11/20 07:10:42;;;;;;;0.88;0.82;;;;;;;2.40;75.13;99945.63;5068165;28;20025;-66
2023/11/20 07:13:07;;;;;;;1.48;1.35;;;;;;;2.44;75.11;99944.84;5067890;28;20027;-65
2023/11/20 07:15:32;;;;;;;1.75;0.93;;;;;;;2.52;74.90;99929.63;5068191;28;20024;-64
2023/11/20 07:18:01;;;;;;;1.17;1.08;;;;;;;2.50;75.04;99943.22;5068202;28;20104;-66
2023/11/20 07:20:26;;;;;;;3.47;2.35;;;;;;;2.49;74.73;99952.63;5068101;28;20032;-65
2023/11/20 07:22:52;;;;;;;0.80;0.75;;;;;;;2.50;74.66;99966.28;5067689;28;20017;-64
2023/11/20 07:25:17;;;;;;;1.15;1.15;;;;;;;2.43;75.20;99976.41;5068101;28;20025;-65
2023/11/20 07:27:42;;;;;;;1.67;1.58;;;;;;;2.37;75.58;99973.75;5067579;28;20032;-65
2023/11/20 07:30:09;;;;;;;1.10;1.10;;;;;;;2.41;75.70;99984.94;5067853;28;20031;-65
2023/11/20 07:32:35;;;;;;;1.55;1.45;;;;;;;2.36;75.33;99964.34;5067641;28;20080;-65
2023/11/20 07:35:04;;;;;;;0.65;0.63;;;;;;;2.42;75.55;99974.72;5067922;28;20029;-65
2023/11/20 07:37:30;;;;;;;0.60;0.60;;;;;;;2.42;75.52;99969.59;5067620;28;20036;-66
2023/11/20 07:39:57;;;;;;;1.02;0.98;;;;;;;2.47;75.26;99980.78;5067481;28;20045;-65
2023/11/20 07:42:22;;;;;;;0.50;0.50;;;;;;;2.51;75.41;99988.53;5071467;23;20053;-68
2023/11/20 07:44:48;;;;;;;1.65;1.33;;;;;;;2.44;75.26;99977.28;5076964;23;20051;-65
2023/11/20 07:47:13;;;;;;;1.83;1.73;;;;;;;2.50;75.51;99976.53;5087547;28;20099;-65
2023/11/20 07:49:39;;;;;;;0.70;0.70;;;;;;;2.62;74.92;99974.16;5087415;28;20097;-65
2023/11/20 07:52:05;;;;;;;1.05;1.05;;;;;;;2.58;74.85;99990.34;5087801;28;20031;-65
2023/11/20 07:54:31;;;;;;;0.80;0.80;;;;;;;2.53;75.21;99991.97;5087526;28;20050;-65
2023/11/20 07:56:56;;;;;;;2.20;1.42;;;;;;;2.53;75.27;99991.97;5087589;28;20020;-65
2023/11/20 07:59:23;;;;;;;0.65;0.65;;;;;;;2.56;75.29;99998.00;5087307;28;20020;-65
2023/11/20 08:01:49;;;;;;;0.68;0.68;;;;;;;2.53;75.25;100002.22;5087537;28;20129;-65
2023/11/20 08:04:16;;;;;;;0.65;0.65;;;;;;;2.59;74.72;100007.44;5087366;28;20029;-65
2023/11/20 08:06:42;;;;;;;1.20;1.20;;;;;;;2.59;74.61;100003.19;5087255;28;20480;-64
2023/11/20 08:09:09;;;;;;;1.75;1.13;;;;;;;2.52;75.16;100005.63;5086002;28;20029;-65
2023/11/20 08:11:34;;;;;;;3.17;1.67;;;;;;;2.54;75.35;100014.22;5086973;28;20421;-66
2023/11/20 08:14:00;;;;;;;2.90;1.48;;;;;;;2.51;75.37;100011.59;5083311;23;20120;-65
2023/11/20 08:16:25;;;;;;;3.70;1.63;;;;;;;2.58;75.55;100024.53;5066055;28;20033;-65
2023/11/20 08:18:52;;;;;;;1.83;1.63;;;;;;;2.57;75.38;100014.25;5066777;28;20411;-64
2023/11/20 08:21:18;;;;;;;1.17;1.10;;;;;;;2.64;75.37;100017.78;5065495;28;20027;-65
2023/11/20 08:23:43;;;;;;;0.65;0.65;;;;;;;2.68;75.32;100017.00;5066918;28;20032;-64
2023/11/20 08:26:09;;;;;;;3.17;1.83;;;;;;;2.73;75.05;100026.50;5066867;28;20029;-65
2023/11/20 08:28:34;;;;;;;4.30;1.85;;;;;;;2.65;75.27;100020.38;5066597;28;20166;-64
2023/11/20 08:30:59;;;;;;;2.90;1.85;;;;;;;2.76;75.16;100025.69;5066573;28;20017;-64
2023/11/20 08:33:25;;;;;;;7.30;0.93;;;;;;;2.77;75.37;100032.56;5066131;28;20029;-66
2023/11/20 08:35:50;;;;;;;1.30;1.23;;;;;;;2.78;75.35;100026.56;5066875;28;20029;-65
2023/11/20 08:38:15;;;;;;;2.22;2.03;;;;;;;2.87;75.02;100032.69;5066491;28;20017;-66
2023/11/20 08:40:41;;;;;;;1.65;1.55;;;;;;;2.86;74.86;100034.41;5066767;28;20025;-65
2023/11/20 08:43:06;;;;;;;1.35;1.30;;;;;;;2.87;74.98;100033.56;5066446;28;20534;-65
2023/11/20 08:45:32;;;;;;;1.20;1.20;;;;;;;2.90;75.03;100043.88;5066681;28;20025;-65
2023/11/20 08:47:58;;;;;;;1.77;1.67;;;;;;;2.89;74.94;100046.44;5066373;28;20032;-65
2023/11/20 08:50:26;;;;;;;1.13;1.10;;;;;;;2.95;74.96;100042.28;5066468;28;20025;-64
2023/11/20 08:52:52;;;;;;;1.17;1.02;;;;;;;2.97;74.83;100048.28;5066361;28;20021;-65
2023/11/20 08:55:18;;;;;;;2.38;2.17;;;;;;;3.04;74.54;100043.25;5066452;28;20021;-64
2023/11/20 08:57:43;;;;;;;1.48;0.90;;;;;;;2.94;74.39;100039.69;5066269;28;20029;-65
2023/11/20 09:00:14;;;;;;;0.85;0.85;;;;;;;2.99;74.26;100034.63;5066270;28;20075;-65
2023/11/20 09:02:43;;;;;;;0.97;0.97;;;;;;;2.96;74.44;100048.25;5066195;28;20017;-64
2023/11/20 09:05:10;;;;;;;5.40;1.60;;;;;;;2.94;74.78;100048.22;5066046;28;20017;-65
2023/11/20 09:07:36;;;;;;;1.23;1.13;;;;;;;3.01;74.56;100059.44;5066175;28;20039;-65
2023/11/20 09:10:04;;;;;;;1.38;1.27;;;;;;;3.05;74.72;100056.09;5066145;28;20054;-66
2023/11/20 09:12:30;;;;;;;0.73;0.73;;;;;;;3.10;75.11;100051.03;5064282;28;20443;-66
2023/11/20 09:14:55;;;;;;;1.33;1.15;;;;;;;3.21;74.80;100054.66;5065875;28;20029;-65
2023/11/20 09:17:20;;;;;;;3.05;1.58;;;;;;;3.31;74.66;100050.53;5065994;28;20032;-65
2023/11/20 09:19:46;;;;;;;1.17;1.02;;;;;;;3.32;74.77;100041.97;5065913;28;20025;-65
2023/11/20 09:22:11;;;;;;;3.00;2.15;;;;;;;3.42;74.74;100048.13;5064323;28;20028;-65
2023/11/20 09:24:36;;;;;;;1.20;1.10;;;;;;;3.49;74.59;100049.09;5065919;28;20072;-64
2023/11/20 09:27:02;;;;;;;1.77;1.55;;;;;;;3.46;73.88;100052.47;5065812;28;20032;-66
2023/11/20 09:29:27;;;;;;;1.00;1.00;;;;;;;3.42;73.55;100053.25;5065581;28;20021;-65
2023/11/20 09:31:55;;;;;;;1.45;1.35;;;;;;;3.36;74.14;100048.03;5065656;28;20017;-66
2023/11/20 09:34:23;;;;;;;1.25;1.15;;;;;;;3.41;74.02;100046.41;5064592;28;20021;-65
2023/11/20 09:36:50;;;;;;;2.00;1.83;;;;;;;3.41;74.07;100051.53;5065848;28;20036;-65
2023/11/20 09:39:17;;;;;;;2.13;0.88;;;;;;;3.40;73.85;100048.94;5065572;28;20029;-65
2023/11/20 09:41:43;;;;;;;1.25;1.15;;;;;;;3.35;74.10;100049.72;5065639;28;20028;-64
2023/11/20 09:44:10;;;;;;;3.22;1.45;;;;;;;3.40;73.96;100048.94;5064834;28;20025;-64
2023/11/20 09:46:39;;;;;;;1.35;1.20;;;;;;;3.40;73.94;100046.38;5065247;28;20477;-65
2023/11/20 09:49:08;;;;;;;1.13;0.80;;;;;;;3.45;73.16;100043.03;5065199;28;20021;-65
2023/11/20 09:51:35;;;;;;;2.28;2.03;;;;;;;3.34;73.33;100050.56;5065356;28;20025;-65
2023/11/20 09:54:08;;;;;;;0.68;0.68;;;;;;;3.33;73.31;100060.81;5065202;28;20017;-65
2023/11/20 09:56:35;;;;;;;1.25;1.15;;;;;;;3.24;73.45;100046.16;5065361;28;20036;-65
2023/11/20 09:59:01;;;;;;;0.65;0.65;;;;;;;3.29;73.83;100054.75;5065052;28;20047;-68
2023/11/20 10:01:26;;;;;;;0.70;0.70;;;;;;;3.34;73.93;100068.53;5065389;28;20025;-65
2023/11/20 10:03:54;;;;;;;1.75;1.65;;;;;;;3.36;73.45;100055.72;5065119;28;20025;-65
2023/11/20 10:06:22;;;;;;;1.48;1.13;;;;;;;3.32;73.29;100049.69;5065497;28;20068;-66
2023/11/20 10:08:50;;;;;;;1.65;1.55;;;;;;;3.35;73.35;100057.41;5072847;23;20811;-67
2023/11/20 10:11:20;;;;;;;0.65;0.65;;;;;;;3.41;73.75;100066.06;5044997;28;20033;-66
2023/11/20 10:13:46;;;;;;;2.35;1.42;;;;;;;3.51;73.65;100064.50;5044401;28;20018;-66
2023/11/20 10:16:22;;;;;;;0.63;0.63;;;;;;;3.59;72.74;100061.19;5045033;28;20021;-68
2023/11/20 10:18:52;;;;;;;1.50;1.35;;;;;;;3.50;72.79;100067.91;5045324;28;20017;-66
2023/11/20 10:21:19;;;;;;;1.10;1.05;;;;;;;3.54;73.32;100064.56;5045010;28;20013;-66
2023/11/20 10:23:45;;;;;;;2.60;1.60;;;;;;;3.60;73.16;100064.63;5043492;28;20024;-66
2023/11/20 10:26:10;;;;;;;0.80;0.80;;;;;;;3.57;73.26;100062.91;5045000;28;20021;-67
2023/11/20 10:28:40;;;;;;;1.08;1.05;;;;;;;3.58;73.18;100069.75;5044997;28;20029;-66
2023/11/20 10:31:06;;;;;;;2.53;1.48;;;;;;;3.57;72.87;100060.34;5044869;28;20330;-67
2023/11/20 10:33:31;;;;;;;1.25;1.17;;;;;;;3.55;73.20;100058.56;5044835;28;20029;-67
2023/11/20 10:36:10;;;;;;;1.60;1.38;;;;;;;3.54;73.17;100056.84;5044908;28;20382;-67
2023/11/20 10:38:36;;;;;;;2.13;1.88;;;;;;;3.50;72.77;100070.50;5044909;28;20025;-65
2023/11/20 10:41:08;;;;;;;0.57;0.57;;;;;;;3.14;73.03;100016.91;5060370;23;20052;-68
2023/11/20 10:43:34;;;;;;;;;;;;;;;3.44;73.07;100060.97;5081952;28;20124;-69
2023/11/20 10:46:00;;;;;;;0.60;0.60;;;;;;;3.37;73.46;100061.72;5083026;28;20345;-69
2023/11/20 10:48:31;;;;;;;0.90;0.90;;;;;;;3.39;73.22;100052.34;5084797;28;20024;-68
2023/11/20 10:50:58;;;;;;;1.98;1.88;;;;;;;3.44;73.33;100059.28;5084951;28;20106;-69
2023/11/20 10:53:25;;;;;;;4.72;2.00;;;;;;;3.42;73.62;100053.25;5084684;28;20037;-68
2023/11/20 10:55:55;;;;;;;4.47;1.60;;;;;;;3.53;73.17;100067.97;5085460;28;20043;-68
2023/11/20 10:58:26;;;;;;;0.80;0.77;;;;;;;3.49;73.26;100059.34;5086856;28;20044;-68
2023/11/20 11:00:52;;;;;;;1.00;0.90;;;;;;;3.52;73.11;100066.22;5088463;28;20016;-69
2023/11/20 11:03:18;;;;;;;0.50;0.50;;;;;;;3.50;73.30;100061.06;5087059;28;20047;-69
2023/11/20 11:05:46;;;;;;;1.85;1.75;;;;;;;3.47;73.17;100059.31;5088327;28;20080;-70
2023/11/20 11:08:14;;;;;;;0.60;0.60;;;;;;;3.55;73.42;100064.56;5088325;28;20059;-68
2023/11/20 11:10:40;;;;;;;0.65;0.65;;;;;;;3.57;73.07;100062.91;5069750;22;20041;-65
2023/11/20 11:13:18;;;;;;;0.50;0.50;;;;;;;3.54;73.18;100068.00;5067727;28;20037;-65
2023/11/20 11:15:47;;;;;;;1.13;1.02;;;;;;;3.54;72.96;100057.72;5050199;28;20032;-65
2023/11/20 11:18:14;;;;;;;3.88;1.35;;;;;;;3.55;73.23;100064.56;5067963;28;20028;-65
2023/11/20 11:20:54;;;;;;;0.63;0.63;;;;;;;3.58;73.35;100068.88;5068096;28;20047;-65
2023/11/20 11:23:48;;;;;;;0.82;0.82;;;;;;;3.66;73.35;100067.28;5067865;28;20025;-66
2023/11/20 11:26:55;;;;;;;1.25;1.15;;;;;;;3.76;73.25;100072.56;5067924;28;20495;-65
2023/11/20 11:29:29;;;;;;;0.70;0.68;;;;;;;3.78;72.85;100069.19;5049727;28;20060;-64
2023/11/20 11:32:36;;;;;;;0.50;0.50;;;;;;;3.79;72.84;100078.59;5068235;28;20013;-65
2023/11/20 11:35:34;;;;;;;1.00;0.95;;;;;;;3.72;73.02;100072.50;5036906;28;20063;-66
2023/11/20 11:38:18;;;;;;;1.75;1.13;;;;;;;3.76;73.00;100072.56;5046603;28;20037;-65